Historyczne dane pomiarowe

Dodano dane terminowe – wersja testowa.

Dane z okresu 1951-2019

Wersja bazy: 1.34 [2019-03-16, lista zmian], aktualizacja planowana na 2019-04-15

Dane meteo z obszaru Polski uzyskane na podstawie danych udostępnionych przez Instytut Meteorologii i Gospodarki Wodnej – Państwowy Instytut Badawczy.

 

Wybierz Datę:    

       

TemperaturaWilgotnośćZachmurzenieWiatrCiśnienieWidzialnośćZjawiska
 Data    tng td wb rh cc ccl cl cm ch dir g1 g2 mslp ppp      
1994-08-14 00:00:00 13.4--- 6.9 10.065wxwxwx4wx--1015.3 974.6 0.0---wx
1994-08-14 01:00:00 13.4--- 6.9 10.065wxwxwx2wx--1015.7 975.0----wx
1994-08-14 02:00:00 11.2--- 6.7 8.974wxwx2wx--1016.4 975.4----wx
1994-08-14 03:00:00 11.0--- 6.5 8.774wxwx1wx--1016.7 975.6----wx
1994-08-14 04:00:00 10.8--- 8.5 9.686wxwxwxwx2wx--1016.8 975.7----wx
1994-08-14 05:00:00 10.8--- 8.1 9.484wxwxwxwx3wx--1017.2 976.1----wx
1994-08-14 06:00:00 12.0--- 7.2 9.572wxwxwxwx5wx--1017.2 976.2 0.0---wx
1994-08-14 07:00:00 13.3--- 6.1 9.662wxwxwxwx6wx--1017.0 976.2----wx
1994-08-14 08:00:00 13.2--- 5.7 9.461wxwxwxwx5wx--1017.2 976.4----wx
1994-08-14 09:00:00 14.6--- 6.1 10.257wxwxwxwxwx4wx12-1017.1 976.5----wx
1994-08-14 10:00:00 15.0--- 4.2 9.648wxwxwxwxwx7wx14-1017.1 976.6----wx
1994-08-14 11:00:00 15.1--- 4.1 9.648wxwxwxwx6wx11-1017.3 976.8----wx
1994-08-14 12:00:00 15.0--- 4.2 9.648wxwxwxwx6wx14-1017.5 976.9 0.0---wx
1994-08-14 13:00:00 15.8--- 5.3 10.450wxwxwx3wx--1016.9 976.5----wx
1994-08-14 14:00:00 16.2--- 5.1 10.548wxwxwxwx5wx--1016.8 976.4----wx
1994-08-14 15:00:00 16.8--- 4.4 10.544wxwxwxwx4wx--1016.6 976.3----wx
1994-08-14 16:00:00 17.1--- 4.3 10.643wxwxwxwx4wx--1016.1 975.9----wx
1994-08-14 17:00:00 15.8--- 3.5 9.744wxwxwxwx5wx--1016.2 975.8----wx
1994-08-14 18:00:00 15.0--- 4.7 9.850wxwxwxwx4wx--1016.3 975.8 0.0---wx
1994-08-14 19:00:00 12.9--- 4.7 8.857wxwxwxwx1wx--1016.7 975.9----wx
1994-08-14 20:00:00 12.8--- 4.8 8.858wxwxwxwx1wx--1017.1 976.3----wx
1994-08-14 21:00:00 13.2--- 6.2 9.663wxwxwx3wx--1017.2 976.4----wx
1994-08-14 22:00:00 13.4--- 6.7 9.964wxwxwx1wx--1017.2 976.4----wx
1994-08-14 23:00:00 13.0--- 6.6 9.765wxwxwx3wx--1017.4 976.6----wx

 

Źródłem pochodzenia danych jest Instytut Meteorologii i Gospodarki Wodnej – Państwowy Instytut Badawczy. Dane Instytutu Meteorologii i Gospodarki Wodnej – Państwowego Instytutu Badawczego zostały przetworzone.

Dane źródłowe można odnaleźć na stronie https://dane.imgw.pl